Time;durP1;ratioP1;P1;durP2;ratioP2;P2;SDS_P1;SDS_P2;PMS_P1;PMS_P2;Temp;Humidity;BMP_temperature;BMP_pressure;BME280_temperature;BME280_humidity;BME280_pressure;Samples;Min_cycle;Max_cycle;Signal;HPM_P1;HPM_P2
2023/06/30 00:03:09;;;;;;;2.85;1.45;;;20.10;90.90;;;;;;10444015;28;20028;-66
2023/06/30 00:08:09;;;;;;;2.92;1.27;;;20.00;90.90;;;;;;10443123;28;20451;-66
2023/06/30 00:13:10;;;;;;;3.60;1.23;;;20.10;90.90;;;;;;10439863;28;20388;-67
2023/06/30 00:18:10;;;;;;;2.90;1.10;;;20.10;90.90;;;;;;10449679;28;20104;-67
2023/06/30 00:23:13;;;;;;;5.05;1.23;;;20.10;90.80;;;;;;10437807;28;20035;-65
2023/06/30 00:28:13;;;;;;;2.67;1.15;;;20.00;90.70;;;;;;10437527;28;20029;-65
2023/06/30 00:33:14;;;;;;;4.05;1.50;;;20.00;90.70;;;;;;10446915;28;20017;-66
2023/06/30 00:38:15;;;;;;;3.95;1.17;;;19.90;90.60;;;;;;10446402;28;20074;-66
2023/06/30 00:43:15;;;;;;;3.67;1.42;;;20.00;90.60;;;;;;10445534;28;20097;-67
2023/06/30 00:48:17;;;;;;;3.83;1.27;;;20.00;90.60;;;;;;10437486;28;20455;-66
2023/06/30 00:53:19;;;;;;;1.17;0.90;;;19.90;90.60;;;;;;10451030;28;20024;-66
2023/06/30 00:58:19;;;;;;;5.05;1.40;;;19.90;90.50;;;;;;10451767;28;20017;-66
2023/06/30 01:03:26;;;;;;;2.33;1.10;;;19.90;90.50;;;;;;10447187;28;20025;-66
2023/06/30 01:08:49;;;;;;;4.30;1.50;;;19.90;90.40;;;;;;10453161;28;20029;-66
2023/06/30 01:13:50;;;;;;;2.92;1.40;;;19.80;90.40;;;;;;10442579;28;20029;-65
2023/06/30 01:18:53;;;;;;;2.17;1.17;;;19.80;90.30;;;;;;10446421;28;20465;-66
2023/06/30 01:23:59;;;;;;;3.53;1.20;;;19.80;90.30;;;;;;10455353;28;20039;-66
2023/06/30 01:29:06;;;;;;;1.73;1.00;;;19.80;90.20;;;;;;10448624;28;20028;-65
2023/06/30 01:34:07;;;;;;;3.05;1.20;;;19.70;90.20;;;;;;10446814;28;20033;-67
2023/06/30 01:39:07;;;;;;;5.43;1.23;;;19.70;90.20;;;;;;10451241;28;20107;-65
2023/06/30 01:44:09;;;;;;;2.85;0.90;;;19.70;90.10;;;;;;10458058;28;20087;-66
2023/06/30 01:49:11;;;;;;;3.05;1.10;;;19.60;90.10;;;;;;10444778;28;20427;-66
2023/06/30 01:54:17;;;;;;;2.40;0.90;;;19.60;90.00;;;;;;10445166;28;20094;-66
2023/06/30 01:59:17;;;;;;;5.32;1.25;;;19.60;90.00;;;;;;10449538;28;20024;-65
2023/06/30 02:04:18;;;;;;;2.85;0.80;;;19.60;90.00;;;;;;10452674;28;20069;-66
2023/06/30 02:09:18;;;;;;;4.18;1.35;;;19.50;90.00;;;;;;10443808;28;20017;-67
2023/06/30 02:14:19;;;;;;;3.55;1.00;;;19.50;89.90;;;;;;10437912;28;20392;-66
2023/06/30 02:19:23;;;;;;;3.13;1.20;;;19.50;89.80;;;;;;10440919;28;20024;-66
2023/06/30 02:24:24;;;;;;;1.30;0.90;;;19.50;89.80;;;;;;10458563;28;20092;-66
2023/06/30 02:29:24;;;;;;;3.10;1.10;;;19.40;89.70;;;;;;10451484;28;20036;-66
2023/06/30 02:34:25;;;;;;;2.42;1.05;;;19.40;89.60;;;;;;10442477;28;20389;-66
2023/06/30 02:39:26;;;;;;;2.38;0.90;;;19.40;89.60;;;;;;10443994;28;20013;-66
2023/06/30 02:44:26;;;;;;;1.00;0.88;;;19.30;89.50;;;;;;10442509;28;20035;-66
2023/06/30 02:49:27;;;;;;;3.65;1.33;;;19.30;89.50;;;;;;10446260;28;20058;-66
2023/06/30 02:54:28;;;;;;;1.55;0.95;;;19.30;89.40;;;;;;10441525;28;20035;-66
2023/06/30 02:59:28;;;;;;;4.78;1.00;;;19.20;89.30;;;;;;10452311;28;20021;-66
2023/06/30 03:04:29;;;;;;;2.63;0.65;;;19.20;89.20;;;;;;10451554;28;20020;-66
2023/06/30 03:09:29;;;;;;;2.75;1.15;;;19.10;89.10;;;;;;10451390;28;20444;-64
2023/06/30 03:14:30;;;;;;;2.65;0.60;;;19.10;89.10;;;;;;10449195;28;20021;-67
2023/06/30 03:19:31;;;;;;;3.08;1.00;;;19.20;89.10;;;;;;10448563;28;20108;-67
2023/06/30 03:24:31;;;;;;;2.33;0.95;;;19.10;88.90;;;;;;10450520;28;20037;-66
2023/06/30 03:29:32;;;;;;;2.17;0.95;;;19.10;88.90;;;;;;10448324;28;20105;-67
2023/06/30 03:34:32;;;;;;;3.25;0.88;;;19.00;88.80;;;;;;10431414;28;20025;-66
2023/06/30 03:39:33;;;;;;;2.35;1.20;;;19.00;88.80;;;;;;10440245;28;20326;-66
2023/06/30 03:44:34;;;;;;;2.55;0.82;;;19.00;88.80;;;;;;10435494;28;20025;-66
2023/06/30 03:49:34;;;;;;;1.25;0.75;;;19.00;88.80;;;;;;10450537;28;20071;-66
2023/06/30 03:54:35;;;;;;;2.58;1.00;;;18.90;88.70;;;;;;10444467;28;20013;-66
2023/06/30 03:59:35;;;;;;;2.22;0.95;;;18.90;88.60;;;;;;10446628;28;20017;-67
2023/06/30 04:04:36;;;;;;;1.23;0.73;;;18.90;88.60;;;;;;10432153;28;20026;-65
2023/06/30 04:09:37;;;;;;;1.55;0.90;;;18.90;89.20;;;;;;10450493;28;20021;-66
2023/06/30 04:14:37;;;;;;;1.75;0.80;;;18.80;88.40;;;;;;10443194;28;20452;-67
2023/06/30 04:19:38;;;;;;;2.00;0.80;;;18.90;88.50;;;;;;10439398;28;20025;-66
2023/06/30 04:24:38;;;;;;;2.35;1.00;;;18.80;88.30;;;;;;10444599;28;20048;-66
2023/06/30 04:29:39;;;;;;;1.70;1.00;;;18.80;88.30;;;;;;10448900;28;20048;-67
2023/06/30 04:34:40;;;;;;;1.83;0.90;;;18.80;88.30;;;;;;10454552;28;20024;-66
2023/06/30 04:39:42;;;;;;;2.85;1.00;;;18.80;88.30;;;;;;10447744;28;20021;-66
2023/06/30 04:44:42;;;;;;;1.67;0.80;;;18.80;88.20;;;;;;10463180;28;20481;-66
2023/06/30 04:49:43;;;;;;;3.60;1.10;;;18.70;88.10;;;;;;10456167;28;20039;-65
2023/06/30 04:54:44;;;;;;;2.33;0.80;;;18.70;88.10;;;;;;10452019;28;20024;-65
2023/06/30 04:59:44;;;;;;;2.00;0.90;;;18.70;88.00;;;;;;10455438;28;20028;-65
2023/06/30 05:04:45;;;;;;;1.58;0.95;;;18.70;88.00;;;;;;10451711;28;20025;-65
2023/06/30 05:09:46;;;;;;;2.25;1.05;;;18.70;88.00;;;;;;10443756;28;20028;-65
2023/06/30 05:14:48;;;;;;;9.93;1.00;;;18.70;88.00;;;;;;10455113;28;20077;-66
2023/06/30 05:19:49;;;;;;;1.00;0.80;;;18.70;88.50;;;;;;10459502;28;20055;-66
2023/06/30 05:24:50;;;;;;;3.70;1.20;;;18.70;88.00;;;;;;10444134;28;20591;-65
2023/06/30 05:29:50;;;;;;;3.17;0.88;;;18.70;88.00;;;;;;10457130;28;20036;-66
2023/06/30 05:34:51;;;;;;;2.53;1.13;;;18.70;88.00;;;;;;10451438;28;20091;-65
2023/06/30 05:39:52;;;;;;;2.70;0.90;;;18.70;88.00;;;;;;10452125;28;20509;-65
2023/06/30 05:44:52;;;;;;;6.18;1.33;;;18.70;88.00;;;;;;10457495;28;20033;-65
2023/06/30 05:49:53;;;;;;;1.92;0.77;;;18.70;88.00;;;;;;10448845;28;20025;-66
2023/06/30 05:54:53;;;;;;;2.83;0.93;;;18.70;88.00;;;;;;10442045;28;20112;-66
2023/06/30 05:59:54;;;;;;;1.65;1.00;;;18.70;88.00;;;;;;10448203;28;20037;-66
2023/06/30 06:04:55;;;;;;;3.22;0.95;;;18.70;87.90;;;;;;10440359;28;20116;-66
2023/06/30 06:09:55;;;;;;;3.70;1.02;;;18.80;88.00;;;;;;10454262;28;20025;-66
2023/06/30 06:14:56;;;;;;;4.32;1.10;;;18.70;87.90;;;;;;10435151;28;20049;-65
2023/06/30 06:19:57;;;;;;;3.10;1.08;;;18.80;87.90;;;;;;10445546;28;20033;-67
2023/06/30 06:24:58;;;;;;;4.70;1.00;;;18.80;87.80;;;;;;10456413;28;20036;-65
2023/06/30 06:29:59;;;;;;;3.25;1.00;;;18.80;87.90;;;;;;10460055;28;20021;-65
2023/06/30 06:35:00;;;;;;;1.35;0.80;;;18.80;87.80;;;;;;10450050;28;20029;-67
2023/06/30 06:40:00;;;;;;;1.73;0.82;;;18.90;87.80;;;;;;10452632;28;20426;-65
2023/06/30 06:45:01;;;;;;;3.05;0.88;;;18.90;87.80;;;;;;10452090;28;20025;-67
2023/06/30 06:50:03;;;;;;;1.92;0.90;;;18.90;88.30;;;;;;10449890;28;20021;-66
2023/06/30 06:55:04;;;;;;;1.95;0.85;;;18.90;87.70;;;;;;10457988;28;20020;-66
2023/06/30 07:00:05;;;;;;;1.05;0.90;;;18.90;87.70;;;;;;10439186;28;20099;-66
2023/06/30 07:05:06;;;;;;;1.05;0.80;;;18.90;87.60;;;;;;10447606;28;20017;-66
2023/06/30 07:10:07;;;;;;;1.48;0.80;;;18.90;87.50;;;;;;10450092;28;20075;-65
2023/06/30 07:15:08;;;;;;;2.33;0.77;;;19.00;87.50;;;;;;10451236;28;20108;-66
2023/06/30 07:20:10;;;;;;;1.65;0.80;;;19.00;87.30;;;;;;10447746;28;20488;-65
2023/06/30 07:25:10;;;;;;;2.42;1.02;;;19.00;87.20;;;;;;10441126;28;20044;-66
2023/06/30 07:30:11;;;;;;;1.75;0.90;;;19.10;87.20;;;;;;10445706;28;20440;-65
2023/06/30 07:35:13;;;;;;;2.53;0.60;;;19.10;87.20;;;;;;10445629;28;20472;-66
2023/06/30 07:40:15;;;;;;;2.15;1.00;;;19.10;87.20;;;;;;10454860;28;20119;-67
2023/06/30 07:45:16;;;;;;;2.45;0.90;;;19.10;87.10;;;;;;10450891;28;20079;-66
2023/06/30 07:50:17;;;;;;;2.38;0.80;;;19.10;87.60;;;;;;10446267;28;20033;-65
2023/06/30 07:55:18;;;;;;;2.30;0.80;;;19.10;87.00;;;;;;10453540;28;20031;-65
2023/06/30 08:00:19;;;;;;;2.00;0.80;;;19.20;87.00;;;;;;10446672;28;20116;-66
2023/06/30 08:05:20;;;;;;;1.88;0.70;;;19.20;87.00;;;;;;10450090;28;20027;-66
2023/06/30 08:10:20;;;;;;;1.33;0.70;;;19.30;87.00;;;;;;10430275;28;20377;-65
2023/06/30 08:15:21;;;;;;;2.95;1.05;;;19.30;86.90;;;;;;10444655;28;20123;-66
2023/06/30 08:20:22;;;;;;;1.17;0.70;;;19.30;86.90;;;;;;10451299;28;20024;-66
2023/06/30 08:25:24;;;;;;;1.30;0.85;;;19.40;86.80;;;;;;10448454;28;20041;-65
2023/06/30 08:30:24;;;;;;;1.10;0.60;;;19.40;86.70;;;;;;10434808;28;20021;-66
2023/06/30 08:35:25;;;;;;;2.13;0.90;;;19.50;86.70;;;;;;10439003;28;20020;-65
2023/06/30 08:40:29;;;;;;;2.17;0.73;;;19.50;86.60;;;;;;10429052;28;20024;-65
2023/06/30 08:45:30;;;;;;;0.93;0.70;;;19.50;86.50;;;;;;10432207;28;20108;-66
2023/06/30 08:50:33;;;;;;;1.92;0.90;;;19.50;86.40;;;;;;10440586;28;20112;-66
2023/06/30 08:55:34;;;;;;;1.85;0.80;;;19.60;86.30;;;;;;10442659;28;20087;-66
2023/06/30 09:00:34;;;;;;;1.08;0.77;;;19.70;86.20;;;;;;10433456;28;20033;-66
2023/06/30 09:05:37;;;;;;;3.22;0.88;;;19.70;86.20;;;;;;10432648;28;20370;-66
2023/06/30 09:10:38;;;;;;;1.75;1.00;;;19.70;86.20;;;;;;10427165;28;20037;-66
2023/06/30 09:15:40;;;;;;;2.28;0.80;;;19.70;86.20;;;;;;10434557;28;20021;-65
2023/06/30 09:20:41;;;;;;;2.47;0.90;;;19.70;86.10;;;;;;10458216;28;20032;-66
2023/06/30 09:25:41;;;;;;;1.75;0.75;;;19.70;86.10;;;;;;10441371;28;20033;-66
2023/06/30 09:30:46;;;;;;;2.20;0.80;;;19.80;86.00;;;;;;10444684;28;20032;-65
2023/06/30 09:35:47;;;;;;;1.75;0.80;;;19.80;85.80;;;;;;10447520;28;20025;-66
2023/06/30 09:40:49;;;;;;;2.67;0.90;;;19.90;85.80;;;;;;10442595;28;20029;-65
2023/06/30 09:45:59;;;;;;;1.58;0.88;;;19.90;85.60;;;;;;10443279;28;20547;-64
2023/06/30 09:51:09;;;;;;;1.48;0.80;;;19.90;85.50;;;;;;10449168;28;20111;-65
2023/06/30 09:56:21;;;;;;;1.92;0.82;;;20.00;85.40;;;;;;10453995;28;20033;-66
2023/06/30 10:01:23;;;;;;;1.00;0.82;;;20.00;85.20;;;;;;10443164;28;20532;-66
2023/06/30 10:06:24;;;;;;;1.55;0.70;;;20.00;85.10;;;;;;10447656;28;20021;-66
2023/06/30 10:11:29;;;;;;;2.70;0.90;;;20.10;85.10;;;;;;10446372;28;20034;-64
2023/06/30 10:16:30;;;;;;;3.03;1.00;;;20.10;84.90;;;;;;10439836;28;20017;-65
2023/06/30 10:21:32;;;;;;;1.63;0.90;;;20.10;84.70;;;;;;10439747;28;20041;-66
2023/06/30 10:26:36;;;;;;;2.08;0.88;;;20.20;84.60;;;;;;10443964;28;20025;-66
2023/06/30 10:31:37;;;;;;;1.15;0.95;;;20.30;84.50;;;;;;10439460;28;20480;-66
2023/06/30 10:36:38;;;;;;;0.98;0.80;;;20.30;84.20;;;;;;10449301;28;20028;-65
2023/06/30 10:41:47;;;;;;;2.70;0.80;;;20.40;84.50;;;;;;10443032;28;20484;-66
2023/06/30 10:46:48;;;;;;;3.20;1.10;;;20.50;83.70;;;;;;10440797;28;20024;-66
2023/06/30 10:51:50;;;;;;;2.88;0.95;;;20.50;83.70;;;;;;10446405;28;20482;-66
2023/06/30 10:56:51;;;;;;;2.58;1.00;;;20.50;83.60;;;;;;10445474;28;20107;-64
2023/06/30 11:02:14;;;;;;;1.75;0.82;;;20.50;83.70;;;;;;10456459;28;20033;-66
2023/06/30 11:07:24;;;;;;;1.33;0.95;;;20.50;83.40;;;;;;10444298;28;20029;-66
2023/06/30 11:12:27;;;;;;;2.42;0.90;;;20.50;83.50;;;;;;10441314;28;20028;-66
2023/06/30 11:17:57;;;;;;;2.25;1.00;;;20.60;83.40;;;;;;10438297;28;20393;-66
2023/06/30 11:23:00;;;;;;;1.83;1.10;;;20.60;83.30;;;;;;10435115;28;20443;-66
2023/06/30 11:28:04;;;;;;;1.48;1.20;;;20.60;83.40;;;;;;10448225;28;20489;-66
2023/06/30 11:33:06;;;;;;;1.63;1.10;;;20.60;83.30;;;;;;10434078;28;20547;-66
2023/06/30 11:38:09;;;;;;;1.90;1.25;;;20.70;83.20;;;;;;10440048;28;20021;-66
2023/06/30 11:43:10;;;;;;;1.27;0.98;;;20.80;83.20;;;;;;10433802;28;20504;-66
2023/06/30 11:48:11;;;;;;;2.08;0.98;;;20.90;82.90;;;;;;10447611;28;20071;-69
2023/06/30 11:53:12;;;;;;;1.83;1.20;;;20.90;82.70;;;;;;10442283;28;20023;-66
2023/06/30 11:58:18;;;;;;;0.75;0.63;;;21.00;82.60;;;;;;10448134;28;20021;-66
2023/06/30 12:03:19;;;;;;;2.40;1.23;;;21.10;82.30;;;;;;10445155;28;20036;-65
2023/06/30 12:08:20;;;;;;;4.13;1.00;;;21.20;82.20;;;;;;10439843;28;20025;-67
2023/06/30 12:13:27;;;;;;;1.15;0.93;;;21.20;82.00;;;;;;10444874;28;20022;-65
2023/06/30 12:18:36;;;;;;;1.75;1.27;;;21.20;81.90;;;;;;10445950;28;20021;-66
2023/06/30 12:23:41;;;;;;;3.47;1.27;;;21.20;82.50;;;;;;10436978;28;20369;-67
2023/06/30 12:28:42;;;;;;;2.05;0.98;;;21.20;82.00;;;;;;10445713;28;20025;-66
2023/06/30 12:33:53;;;;;;;1.50;1.00;;;21.20;82.00;;;;;;10443297;28;20024;-67
2023/06/30 12:38:54;;;;;;;1.98;1.15;;;21.30;81.80;;;;;;10441476;28;20036;-66
2023/06/30 12:43:56;;;;;;;3.90;1.35;;;21.40;81.90;;;;;;10444656;28;20021;-66
2023/06/30 12:48:56;;;;;;;1.73;1.10;;;21.50;81.80;;;;;;10451898;28;20477;-66
2023/06/30 12:53:58;;;;;;;2.05;1.00;;;21.40;81.60;;;;;;10458109;28;20044;-66
2023/06/30 12:58:59;;;;;;;1.20;1.10;;;21.60;81.50;;;;;;10454159;28;20051;-66
2023/06/30 13:04:00;;;;;;;3.80;1.33;;;21.60;81.40;;;;;;10448010;28;20021;-65
2023/06/30 13:09:00;;;;;;;2.70;1.30;;;21.70;81.30;;;;;;10454742;28;20036;-66
2023/06/30 13:14:02;;;;;;;2.80;1.02;;;21.80;81.10;;;;;;10454988;28;20203;-66
2023/06/30 13:19:03;;;;;;;1.13;1.00;;;21.80;81.00;;;;;;10453873;28;20515;-66
2023/06/30 13:24:04;;;;;;;1.85;1.30;;;21.90;81.20;;;;;;10452910;28;20112;-66
2023/06/30 13:29:04;;;;;;;1.30;1.20;;;21.90;81.10;;;;;;10455814;28;20534;-66
2023/06/30 13:34:05;;;;;;;2.95;1.10;;;22.00;81.00;;;;;;10456788;28;20082;-66
2023/06/30 13:39:05;;;;;;;2.47;1.27;;;22.10;80.80;;;;;;10452415;28;20067;-66
2023/06/30 13:44:06;;;;;;;1.77;1.30;;;22.10;81.40;;;;;;10433873;28;20501;-66
2023/06/30 13:49:07;;;;;;;1.15;1.00;;;22.10;81.00;;;;;;10441463;28;20377;-67
2023/06/30 13:54:07;;;;;;;1.85;1.20;;;22.20;80.80;;;;;;10433456;28;20025;-66
2023/06/30 13:59:08;;;;;;;1.30;1.10;;;22.30;80.80;;;;;;10439388;28;20021;-68
2023/06/30 14:04:08;;;;;;;1.48;1.10;;;22.30;80.70;;;;;;10444391;28;20481;-67
2023/06/30 14:09:10;;;;;;;2.15;1.27;;;22.30;80.50;;;;;;10445771;28;20451;-67
2023/06/30 14:14:12;;;;;;;1.73;1.17;;;22.30;80.40;;;;;;10444235;28;20055;-67
2023/06/30 14:19:13;;;;;;;2.45;1.38;;;22.30;80.60;;;;;;10436490;28;20036;-67
2023/06/30 14:24:13;;;;;;;1.85;1.30;;;22.20;80.70;;;;;;10435932;28;20041;-67
2023/06/30 14:29:14;;;;;;;2.58;1.30;;;22.30;81.00;;;;;;10440241;28;20036;-67
2023/06/30 14:34:14;;;;;;;1.38;1.15;;;22.20;81.20;;;;;;10447359;28;20053;-68
2023/06/30 14:39:15;;;;;;;1.67;1.13;;;22.20;81.20;;;;;;10440609;28;20554;-68
2023/06/30 14:44:16;;;;;;;2.00;1.25;;;22.10;81.40;;;;;;10438709;28;20056;-68
2023/06/30 14:49:24;;;;;;;2.15;1.30;;;22.10;81.60;;;;;;10437548;28;20028;-68
2023/06/30 14:54:25;;;;;;;2.05;1.23;;;22.10;81.80;;;;;;10441133;28;20018;-67
2023/06/30 14:59:26;;;;;;;1.40;1.30;;;22.10;81.90;;;;;;10447435;28;20476;-68
2023/06/30 15:04:26;;;;;;;1.65;1.20;;;22.00;81.80;;;;;;10450330;28;20046;-68
2023/06/30 15:09:27;;;;;;;2.13;1.30;;;22.00;81.80;;;;;;10444472;28;20025;-68
2023/06/30 15:14:27;;;;;;;2.53;1.10;;;22.20;81.80;;;;;;10438012;28;20013;-68
2023/06/30 15:19:28;;;;;;;1.40;1.30;;;22.20;81.70;;;;;;10433573;28;20021;-68
2023/06/30 15:24:29;;;;;;;4.00;1.50;;;22.20;81.60;;;;;;10437843;28;20558;-68
2023/06/30 15:29:29;;;;;;;2.03;1.45;;;22.40;81.50;;;;;;10437144;28;20030;-68
2023/06/30 15:34:30;;;;;;;2.15;1.45;;;22.40;81.30;;;;;;10447924;28;20495;-67
2023/06/30 15:39:30;;;;;;;2.42;1.60;;;22.50;81.40;;;;;;10441011;28;20024;-68
2023/06/30 15:44:31;;;;;;;2.50;1.42;;;22.50;81.40;;;;;;10441981;28;20030;-68
2023/06/30 15:49:32;;;;;;;1.45;1.27;;;22.50;81.40;;;;;;10443908;28;20021;-68
2023/06/30 15:54:34;;;;;;;2.50;1.58;;;22.40;82.20;;;;;;10446275;28;20017;-67
2023/06/30 15:59:35;;;;;;;1.30;1.20;;;22.30;81.60;;;;;;10439954;28;20018;-67
2023/06/30 16:04:35;;;;;;;3.30;1.27;;;22.40;81.70;;;;;;10441038;28;20017;-68
2023/06/30 16:09:36;;;;;;;3.75;1.40;;;22.30;81.80;;;;;;10446223;28;20673;-68
2023/06/30 16:14:37;;;;;;;1.60;1.10;;;22.30;81.90;;;;;;10438663;28;20524;-67
2023/06/30 16:19:37;;;;;;;6.53;1.77;;;22.20;82.00;;;;;;10449530;28;20485;-68
2023/06/30 16:24:38;;;;;;;1.85;1.40;;;22.20;82.20;;;;;;10451434;28;20922;-68
2023/06/30 16:29:38;;;;;;;1.48;1.38;;;22.10;82.20;;;;;;10449154;28;20043;-67
2023/06/30 16:34:39;;;;;;;2.20;1.40;;;22.10;82.30;;;;;;10446185;28;20021;-67
2023/06/30 16:39:40;;;;;;;1.95;1.38;;;22.00;82.30;;;;;;10460219;28;20052;-68
2023/06/30 16:44:40;;;;;;;2.30;1.63;;;22.00;82.50;;;;;;10458370;28;20100;-68
2023/06/30 16:49:41;;;;;;;1.60;1.50;;;22.00;82.50;;;;;;10457740;28;20028;-67
2023/06/30 16:54:42;;;;;;;1.85;1.40;;;22.00;82.50;;;;;;10447019;28;20419;-68
2023/06/30 16:59:42;;;;;;;1.95;1.42;;;22.00;82.50;;;;;;10453197;28;20049;-68
2023/06/30 17:04:43;;;;;;;1.98;1.67;;;22.00;82.50;;;;;;10458756;28;20033;-68
2023/06/30 17:09:44;;;;;;;1.73;1.35;;;22.00;82.40;;;;;;10455931;28;20478;-67
2023/06/30 17:14:44;;;;;;;1.40;1.30;;;22.00;82.50;;;;;;10455728;28;20099;-67
2023/06/30 17:19:45;;;;;;;2.08;1.45;;;22.00;82.40;;;;;;10452568;28;20029;-67
2023/06/30 17:24:46;;;;;;;2.78;1.50;;;22.00;82.40;;;;;;10449185;28;20029;-68
2023/06/30 17:29:46;;;;;;;1.83;1.40;;;22.00;82.50;;;;;;10451455;28;20447;-67
2023/06/30 17:34:47;;;;;;;1.40;1.27;;;22.00;82.50;;;;;;10450018;28;20013;-67
2023/06/30 17:39:49;;;;;;;1.48;1.25;;;22.00;82.60;;;;;;10447513;28;20033;-67
2023/06/30 17:44:50;;;;;;;2.95;1.40;;;22.00;82.60;;;;;;10453906;28;20048;-67
2023/06/30 17:49:50;;;;;;;3.22;1.45;;;22.00;82.70;;;;;;10446965;28;20032;-67
2023/06/30 17:54:51;;;;;;;2.72;1.50;;;22.00;82.80;;;;;;10456142;28;20020;-67
2023/06/30 17:59:51;;;;;;;2.88;1.70;;;21.90;82.70;;;;;;10437976;28;20107;-67
2023/06/30 18:04:52;;;;;;;1.75;1.45;;;22.00;82.80;;;;;;10451781;28;20029;-67
2023/06/30 18:09:53;;;;;;;2.13;1.50;;;21.90;82.80;;;;;;10450112;28;20053;-67
2023/06/30 18:14:54;;;;;;;2.17;1.40;;;21.90;82.80;;;;;;10453290;28;20057;-67
2023/06/30 18:19:55;;;;;;;3.05;1.60;;;21.90;82.90;;;;;;10451096;28;20116;-67
2023/06/30 18:24:56;;;;;;;2.75;1.30;;;21.80;82.80;;;;;;10447720;28;20487;-67
2023/06/30 18:29:56;;;;;;;1.48;1.38;;;21.80;82.90;;;;;;10448516;28;20327;-67
2023/06/30 18:34:57;;;;;;;2.28;1.50;;;21.80;82.90;;;;;;10436863;28;20033;-67
2023/06/30 18:39:58;;;;;;;1.80;1.30;;;21.80;82.90;;;;;;10439267;28;20072;-67
2023/06/30 18:44:59;;;;;;;2.17;1.30;;;21.70;82.90;;;;;;10436114;28;20036;-67
2023/06/30 18:49:59;;;;;;;1.83;1.30;;;21.70;83.00;;;;;;10449801;28;20207;-67
2023/06/30 18:55:00;;;;;;;1.95;1.45;;;21.70;83.10;;;;;;10436654;28;20428;-67
2023/06/30 19:00:04;;;;;;;2.25;1.23;;;21.60;83.00;;;;;;10435140;28;20032;-67
2023/06/30 19:05:06;;;;;;;1.63;1.30;;;21.60;83.10;;;;;;10441913;28;20102;-67
2023/06/30 19:10:07;;;;;;;1.95;1.50;;;21.60;83.20;;;;;;10445314;28;20110;-67
2023/06/30 19:15:08;;;;;;;1.85;1.30;;;21.50;83.20;;;;;;10440193;28;20028;-67
2023/06/30 19:20:09;;;;;;;1.65;1.38;;;21.50;83.20;;;;;;10447212;28;20036;-67
2023/06/30 19:25:10;;;;;;;2.10;1.17;;;21.50;83.20;;;;;;10444360;28;20536;-67
2023/06/30 19:30:11;;;;;;;2.78;1.40;;;21.50;83.20;;;;;;10437028;28;20112;-67
2023/06/30 19:35:12;;;;;;;1.80;1.20;;;21.50;83.20;;;;;;10436213;28;20029;-67
2023/06/30 19:40:12;;;;;;;1.95;1.30;;;21.50;83.60;;;;;;10438132;28;20029;-67
2023/06/30 19:45:13;;;;;;;4.13;1.40;;;21.30;83.20;;;;;;10439764;28;20037;-67
2023/06/30 19:50:14;;;;;;;2.45;1.40;;;21.40;83.30;;;;;;10444279;28;20032;-67
2023/06/30 19:55:15;;;;;;;2.28;1.13;;;21.30;83.30;;;;;;10446301;28;20639;-67
2023/06/30 20:00:16;;;;;;;3.25;1.33;;;21.30;83.30;;;;;;10440950;28;20021;-67
2023/06/30 20:05:18;;;;;;;2.50;1.20;;;21.30;83.30;;;;;;10448316;28;20446;-67
2023/06/30 20:10:18;;;;;;;2.55;1.17;;;21.30;83.30;;;;;;10439809;28;20024;-67
2023/06/30 20:15:19;;;;;;;2.08;1.25;;;21.20;83.30;;;;;;10437865;28;20023;-67
2023/06/30 20:20:20;;;;;;;1.35;1.10;;;21.20;83.40;;;;;;10439073;28;20036;-67
2023/06/30 20:25:23;;;;;;;1.65;1.40;;;21.20;83.40;;;;;;10439824;28;20033;-67
2023/06/30 20:30:23;;;;;;;2.03;1.10;;;21.20;83.40;;;;;;10444375;28;20071;-67
2023/06/30 20:35:24;;;;;;;1.63;1.10;;;21.10;83.40;;;;;;10439583;28;20029;-67
2023/06/30 20:40:25;;;;;;;1.45;1.23;;;21.10;83.40;;;;;;10436552;28;20051;-67
2023/06/30 20:45:25;;;;;;;1.58;1.30;;;21.10;83.40;;;;;;10436412;28;20033;-67
2023/06/30 20:50:27;;;;;;;3.03;1.30;;;21.00;83.40;;;;;;10442855;28;20024;-67
2023/06/30 20:55:28;;;;;;;2.03;1.15;;;21.10;83.40;;;;;;10439920;28;20013;-67
2023/06/30 21:00:29;;;;;;;2.33;1.30;;;21.10;83.40;;;;;;10433277;28;20489;-67
2023/06/30 21:05:30;;;;;;;2.42;1.30;;;21.00;83.30;;;;;;10441821;28;20414;-67
2023/06/30 21:10:30;;;;;;;1.40;1.20;;;21.00;83.30;;;;;;10437225;28;20107;-67
2023/06/30 21:15:31;;;;;;;3.00;1.40;;;21.00;83.30;;;;;;10439510;28;20458;-67
2023/06/30 21:20:32;;;;;;;1.65;1.40;;;21.00;83.30;;;;;;10449403;28;20035;-67
2023/06/30 21:25:32;;;;;;;2.50;1.23;;;20.90;83.20;;;;;;10445906;28;20025;-67
2023/06/30 21:30:33;;;;;;;2.17;1.30;;;20.90;83.20;;;;;;10444159;28;20025;-67
2023/06/30 21:35:33;;;;;;;2.75;1.60;;;20.90;83.10;;;;;;10453156;28;20028;-66
2023/06/30 21:40:34;;;;;;;2.25;1.30;;;20.90;83.10;;;;;;10443473;28;20032;-67
2023/06/30 21:45:34;;;;;;;2.38;1.45;;;20.80;83.00;;;;;;10457097;28;20094;-67
2023/06/30 21:50:35;;;;;;;2.05;1.27;;;20.90;83.00;;;;;;10441431;28;20048;-67
2023/06/30 21:55:36;;;;;;;2.47;1.25;;;20.80;82.90;;;;;;10446082;28;20037;-67
2023/06/30 22:00:36;;;;;;;1.85;1.20;;;20.80;82.80;;;;;;10453055;28;20018;-67
2023/06/30 22:05:37;;;;;;;2.38;1.30;;;20.80;82.70;;;;;;10449205;28;20048;-67
2023/06/30 22:10:38;;;;;;;1.40;1.23;;;20.80;82.70;;;;;;10444322;28;20025;-67
2023/06/30 22:15:38;;;;;;;1.92;1.33;;;20.80;82.60;;;;;;10445871;28;20017;-67
2023/06/30 22:20:39;;;;;;;2.30;1.17;;;20.80;82.60;;;;;;10443591;28;20124;-67
2023/06/30 22:25:43;;;;;;;2.25;1.30;;;20.70;82.50;;;;;;10440635;28;20032;-67
2023/06/30 22:30:44;;;;;;;4.53;1.50;;;20.70;82.40;;;;;;10438924;28;20021;-67
2023/06/30 22:35:44;;;;;;;4.90;1.45;;;20.70;82.30;;;;;;10449735;28;20103;-67
2023/06/30 22:40:45;;;;;;;2.13;1.40;;;20.70;82.30;;;;;;10441531;28;20450;-67
2023/06/30 22:45:46;;;;;;;2.95;1.30;;;20.70;82.20;;;;;;10448094;28;20376;-67
2023/06/30 22:50:49;;;;;;;4.22;1.50;;;20.60;82.00;;;;;;10447260;28;20017;-67
2023/06/30 22:55:50;;;;;;;3.50;1.75;;;20.60;82.00;;;;;;10447664;28;20047;-67
2023/06/30 23:00:50;;;;;;;5.70;1.42;;;20.60;81.90;;;;;;10444011;28;20074;-67
2023/06/30 23:05:51;;;;;;;3.58;1.35;;;20.60;81.80;;;;;;10442878;28;20362;-67
2023/06/30 23:10:52;;;;;;;3.05;1.40;;;20.60;81.80;;;;;;10447238;28;20033;-67
2023/06/30 23:15:53;;;;;;;2.80;1.63;;;20.60;81.70;;;;;;10439388;28;20033;-67
2023/06/30 23:20:55;;;;;;;2.97;1.48;;;20.50;81.50;;;;;;10437568;28;20035;-67
2023/06/30 23:25:55;;;;;;;2.47;1.60;;;20.50;81.50;;;;;;10448906;28;20102;-67
2023/06/30 23:30:56;;;;;;;4.15;1.70;;;20.50;81.50;;;;;;10437335;28;20112;-67
2023/06/30 23:35:57;;;;;;;5.22;1.48;;;20.50;81.40;;;;;;10453312;28;20089;-67
2023/06/30 23:40:57;;;;;;;5.07;1.83;;;20.40;81.90;;;;;;10442405;28;20017;-67
2023/06/30 23:45:59;;;;;;;5.63;1.75;;;20.30;81.30;;;;;;10451781;28;20529;-67
2023/06/30 23:51:00;;;;;;;2.53;1.50;;;20.50;81.40;;;;;;10448033;28;20028;-67
2023/06/30 23:56:00;;;;;;;2.67;1.50;;;20.40;81.30;;;;;;10437313;28;20074;-67
